sensor_id;sensor_type;location;lat;lon;timestamp;pressure;altitude;pressure_sealevel;temperature;humidity
46382;BME280;66809;52.974;-2.514;2024-03-17T00:01:43;1007.1290599555371;;;7.98685705792536;48.87282451573066
46382;BME280;66809;52.974;-2.514;2024-03-17T00:03:42;1007.1194704368102;;;8.009475822038441;48.856351204758475
46382;BME280;66809;52.974;-2.514;2024-03-17T00:05:42;1007.108396520152;;;8.036100308034225;48.843675165429204
46382;BME280;66809;52.974;-2.514;2024-03-17T00:07:42;1007.0986284369336;;;8.056751974720349;48.823475327924044
46382;BME280;66809;52.974;-2.514;2024-03-17T00:09:42;1007.0898797539735;;;8.076773497889423;48.807453950029156
46382;BME280;66809;52.974;-2.514;2024-03-17T00:11:42;1007.0803417948634;;;8.102145067293192;48.79474650647756
46382;BME280;66809;52.974;-2.514;2024-03-17T00:13:42;1007.0716750962397;;;8.129944784819594;48.770289659459806
46382;BME280;66809;52.974;-2.514;2024-03-17T00:15:42;1007.0635115767598;;;8.16126487529763;48.73517566117629
46382;BME280;66809;52.974;-2.514;2024-03-17T00:17:42;1007.0556626692343;;;8.187186456899664;48.69068780791494
46382;BME280;66809;52.974;-2.514;2024-03-17T00:19:42;1007.0464171375465;;;8.2239425511922;48.64649710721623
46382;BME280;66809;52.974;-2.514;2024-03-17T00:21:42;1007.0357882384395;;;8.249427273352067;48.598973366516134
46382;BME280;66809;52.974;-2.514;2024-03-17T00:23:42;1007.0240152116528;;;8.285092212171483;48.56254811389513
46382;BME280;66809;52.974;-2.514;2024-03-17T00:25:43;1007.0131112494023;;;8.31260386565987;48.53307354105224
46382;BME280;66809;52.974;-2.514;2024-03-17T00:27:42;1006.9992709961351;;;8.323118460893575;48.503496983797255
46382;BME280;66809;52.974;-2.514;2024-03-17T00:29:42;1006.9843408879162;;;8.343899199383744;48.477812074531975
46382;BME280;66809;52.974;-2.514;2024-03-17T00:31:42;1006.9691760896987;;;8.369875762239019;48.44096032554167
46382;BME280;66809;52.974;-2.514;2024-03-17T00:33:42;1006.9536987866396;;;8.398276054360663;48.41447304913979
46382;BME280;66809;52.974;-2.514;2024-03-17T00:35:42;1006.9392970799406;;;8.407671246334287;48.39097164791583
46382;BME280;66809;52.974;-2.514;2024-03-17T00:37:42;1006.92263828184;;;8.431290878968992;48.37631214179903
46382;BME280;66809;52.974;-2.514;2024-03-17T00:39:42;1006.9054764060959;;;8.447977966545752;48.35764383190849
46382;BME280;66809;52.974;-2.514;2024-03-17T00:41:42;1006.8881913940719;;;8.471469634532282;48.3448685170516
46382;BME280;66809;52.974;-2.514;2024-03-17T00:43:42;1006.8703687632484;;;8.486176873272528;48.33910580947726
46382;BME280;66809;52.974;-2.514;2024-03-17T00:45:42;1006.854336037422;;;8.504230525667557;48.322293214575346
46382;BME280;66809;52.974;-2.514;2024-03-17T00:47:42;1006.8375200552917;;;8.53118377608915;48.29952114157356
46382;BME280;66809;52.974;-2.514;2024-03-17T00:49:42;1006.8204978405931;;;8.56815407763121;48.281503413136114
46382;BME280;66809;52.974;-2.514;2024-03-17T00:51:42;1006.8025295821681;;;8.581452249235948;48.2617281152428
46382;BME280;66809;52.974;-2.514;2024-03-17T00:53:42;1006.7860623138157;;;8.601039025860103;48.248662206231735
46382;BME280;66809;52.974;-2.514;2024-03-17T00:55:42;1006.7699676466049;;;8.626043056575652;48.224108890990045
46382;BME280;66809;52.974;-2.514;2024-03-17T00:57:42;1006.7544219091413;;;8.635041460929608;48.20091673569832
46382;BME280;66809;52.974;-2.514;2024-03-17T00:59:42;1006.7374796276958;;;8.652947879451839;48.175350575444966
46382;BME280;66809;52.974;-2.514;2024-03-17T01:01:42;1006.7199529984919;;;8.678631510870959;48.17093683090994
46382;BME280;66809;52.974;-2.514;2024-03-17T01:03:42;1006.7026432633727;;;8.691721683625442;48.17312313850974
46382;BME280;66809;52.974;-2.514;2024-03-17T01:05:42;1006.6864033129818;;;8.699581420477351;48.16200471955872
46382;BME280;66809;52.974;-2.514;2024-03-17T01:07:42;1006.6702965841497;;;8.713750999630133;48.141204702337944
46382;BME280;66809;52.974;-2.514;2024-03-17T01:09:42;1006.6533246551109;;;8.732329596608102;48.119138673761505
46382;BME280;66809;52.974;-2.514;2024-03-17T01:11:42;1006.6343348997085;;;8.742157371443085;48.08986479496644
46382;BME280;66809;52.974;-2.514;2024-03-17T01:13:42;1006.6139547997514;;;8.755713626018608;48.061835117204126
46382;BME280;66809;52.974;-2.514;2024-03-17T01:15:42;1006.5943300314352;;;8.763550158949757;48.03837706445632
46382;BME280;66809;52.974;-2.514;2024-03-17T01:17:42;1006.5726810235518;;;8.785823645326571;48.009555409303125
46382;BME280;66809;52.974;-2.514;2024-03-17T01:19:42;1006.5523362777523;;;8.798497714098172;47.977702695462774
46382;BME280;66809;52.974;-2.514;2024-03-17T01:21:42;1006.5327733735372;;;8.817754920220644;47.95586865972408
46382;BME280;66809;52.974;-2.514;2024-03-17T01:23:42;1006.5149631736316;;;8.820841425456384;47.93733198954753
46382;BME280;66809;52.974;-2.514;2024-03-17T01:25:42;1006.4968073585638;;;8.840443115622481;47.91802774448684
46382;BME280;66809;52.974;-2.514;2024-03-17T01:27:42;1006.4810613915623;;;8.858524052177037;47.90007731415935
46382;BME280;66809;52.974;-2.514;2024-03-17T01:29:42;1006.4655051439374;;;8.869717393502393;47.88669121206168
46382;BME280;66809;52.974;-2.514;2024-03-17T01:31:42;1006.4496202207595;;;8.87230914688644;47.88175032860874
46382;BME280;66809;52.974;-2.514;2024-03-17T01:33:42;1006.4336833659166;;;8.883055193739711;47.87787005126899
46382;BME280;66809;52.974;-2.514;2024-03-17T01:35:42;1006.4177803091045;;;8.89836989916569;47.86989466670139
46382;BME280;66809;52.974;-2.514;2024-03-17T01:37:42;1006.4014803986164;;;8.903984353827246;47.853441781807526
46382;BME280;66809;52.974;-2.514;2024-03-17T01:39:42;1006.3852822225456;;;8.912646724874394;47.84086715680913
46382;BME280;66809;52.974;-2.514;2024-03-17T01:41:42;1006.3685664414404;;;8.920174837628053;47.826137441405315
46382;BME280;66809;52.974;-2.514;2024-03-17T01:43:42;1006.3521793994058;;;8.92567809158958;47.81206738454503
46382;BME280;66809;52.974;-2.514;2024-03-17T01:45:42;1006.3350810447761;;;8.926862761532504;47.81490795903223
46382;BME280;66809;52.974;-2.514;2024-03-17T01:47:43;1006.31907875365;;;8.929164885444957;47.81814919288263
46382;BME280;66809;52.974;-2.514;2024-03-17T01:49:42;1006.3019556511533;;;8.919651949330758;47.821191127627785
46382;BME280;66809;52.974;-2.514;2024-03-17T01:51:42;1006.2852947831836;;;8.917603860854278;47.823267308462796
46382;BME280;66809;52.974;-2.514;2024-03-17T01:53:42;1006.2677082235774;;;8.91164888444066;47.82578868085568
46382;BME280;66809;52.974;-2.514;2024-03-17T01:55:44;1006.248899654386;;;8.90881744058132;47.83803643268194
46382;BME280;66809;52.974;-2.514;2024-03-17T01:57:42;1006.2281472627097;;;8.905263430993905;47.851251932825946
46382;BME280;66809;52.974;-2.514;2024-03-17T01:59:42;1006.2084276841949;;;8.90517743094158;47.872445545993266
46382;BME280;66809;52.974;-2.514;2024-03-17T02:01:42;1006.1885684665571;;;8.90461450269925;47.884231946317634
46382;BME280;66809;52.974;-2.514;2024-03-17T02:03:42;1006.1684276385315;;;8.901379764707277;47.895502721820016
46382;BME280;66809;52.974;-2.514;2024-03-17T02:05:42;1006.1479096149476;;;8.89913447104695;47.91930542404848
46382;BME280;66809;52.974;-2.514;2024-03-17T02:07:42;1006.1269796196834;;;8.893679637596831;47.94425064444452
46382;BME280;66809;52.974;-2.514;2024-03-17T02:09:42;1006.1079764393074;;;8.889149017517001;47.96686544326381
46382;BME280;66809;52.974;-2.514;2024-03-17T02:11:42;1006.0901290262515;;;8.888002382945512;47.996779284150584
46382;BME280;66809;52.974;-2.514;2024-03-17T02:13:42;1006.0728887885399;;;8.878474596278128;48.03489961527835
46382;BME280;66809;52.974;-2.514;2024-03-17T02:15:42;1006.055175667198;;;8.878741467325247;48.06488656049142
46382;BME280;66809;52.974;-2.514;2024-03-17T02:17:42;1006.0388733120527;;;8.873702298629121;48.087316558943456
46382;BME280;66809;52.974;-2.514;2024-03-17T02:19:43;1006.0226892310394;;;8.866371396412308;48.10762900284524
46382;BME280;66809;52.974;-2.514;2024-03-17T02:21:42;1006.0053471041442;;;8.867818529291025;48.11949422988978
46382;BME280;66809;52.974;-2.514;2024-03-17T02:23:42;1005.9874330756179;;;8.872710465785861;48.121636364206175
46382;BME280;66809;52.974;-2.514;2024-03-17T02:25:42;1005.9690533700601;;;8.879081147354794;48.123499247059115
46382;BME280;66809;52.974;-2.514;2024-03-17T02:27:42;1005.9492746414841;;;8.891574846079978;48.11620278263294
46382;BME280;66809;52.974;-2.514;2024-03-17T02:29:42;1005.928622674923;;;8.906437890926785;48.09956416610862
46382;BME280;66809;52.974;-2.514;2024-03-17T02:31:42;1005.9085792812141;;;8.925577518304902;48.0786830702741
46382;BME280;66809;52.974;-2.514;2024-03-17T02:33:42;1005.8881841323602;;;8.939369101334165;48.045844040364415
46382;BME280;66809;52.974;-2.514;2024-03-17T02:35:43;1005.8688124381075;;;8.951179824485832;48.01537238972535
46382;BME280;66809;52.974;-2.514;2024-03-17T02:37:42;1005.8493496745501;;;8.965348539316361;47.97702363417151
46382;BME280;66809;52.974;-2.514;2024-03-17T02:39:42;1005.8297247394111;;;8.988103000563964;47.94149098638176
46382;BME280;66809;52.974;-2.514;2024-03-17T02:41:42;1005.8088663022776;;;9.01062220284466;47.908300248631896
46382;BME280;66809;52.974;-2.514;2024-03-17T02:43:42;1005.7887996803726;;;9.018480093636478;47.8709222989362
46382;BME280;66809;52.974;-2.514;2024-03-17T02:45:43;1005.7670105647226;;;9.034743843922012;47.828594892766695
46382;BME280;66809;52.974;-2.514;2024-03-17T02:47:42;1005.7436140334747;;;9.038734329829582;47.798111737253834
46382;BME280;66809;52.974;-2.514;2024-03-17T02:49:42;1005.7198983472123;;;9.051400019121786;47.768893441405645
46382;BME280;66809;52.974;-2.514;2024-03-17T02:51:42;1005.6952491902185;;;9.067237646284598;47.7532699488062
46382;BME280;66809;52.974;-2.514;2024-03-17T02:53:42;1005.6702904760682;;;9.087761561585488;47.741061395815784
46382;BME280;66809;52.974;-2.514;2024-03-17T02:55:42;1005.6461148353075;;;9.103475153326144;47.71973613621158
46382;BME280;66809;52.974;-2.514;2024-03-17T02:57:42;1005.6238375210555;;;9.121306040622253;47.69491850666812
46382;BME280;66809;52.974;-2.514;2024-03-17T02:59:42;1005.6014671900164;;;9.131806026868741;47.664272429165116
46382;BME280;66809;52.974;-2.514;2024-03-17T03:01:42;1005.5781567998414;;;9.143544547856331;47.636619485749186
46382;BME280;66809;52.974;-2.514;2024-03-17T03:03:42;1005.5545001614483;;;9.152227720852277;47.61458301635695
46382;BME280;66809;52.974;-2.514;2024-03-17T03:05:42;1005.5314409733579;;;9.162891748520234;47.593110892203335
46382;BME280;66809;52.974;-2.514;2024-03-17T03:07:42;1005.5080460470741;;;9.176778140519037;47.586778231705495
46382;BME280;66809;52.974;-2.514;2024-03-17T03:09:42;1005.4833725467672;;;9.17813283226449;47.588308065976406
46382;BME280;66809;52.974;-2.514;2024-03-17T03:11:42;1005.457794509112;;;9.181997714728253;47.5937123664866
46382;BME280;66809;52.974;-2.514;2024-03-17T03:13:43;1005.4328522102774;;;9.183106767947782;47.59781895145106
46382;BME280;66809;52.974;-2.514;2024-03-17T03:15:42;1005.407493984082;;;9.178023603553928;47.61501383800209
46382;BME280;66809;52.974;-2.514;2024-03-17T03:17:42;1005.382557029702;;;9.17486248744374;47.64066458943365
46382;BME280;66809;52.974;-2.514;2024-03-17T03:19:42;1005.3577124246705;;;9.175301815410334;47.675029326715496
46382;BME280;66809;52.974;-2.514;2024-03-17T03:21:42;1005.3325203368742;;;9.165007448497631;47.705191719623826
46382;BME280;66809;52.974;-2.514;2024-03-17T03:23:44;1005.3075072748613;;;9.150797767250252;47.74761276433431
46382;BME280;66809;52.974;-2.514;2024-03-17T03:25:42;1005.2838855587802;;;9.133849052425415;47.79312537429709
46382;BME280;66809;52.974;-2.514;2024-03-17T03:27:42;1005.2624567904011;;;9.119026028048756;47.84607626572738
46382;BME280;66809;52.974;-2.514;2024-03-17T03:29:42;1005.2428130039445;;;9.108101498778588;47.89722358580903
46382;BME280;66809;52.974;-2.514;2024-03-17T03:31:42;1005.2235938308677;;;9.09626315144887;47.929882915226614
46382;BME280;66809;52.974;-2.514;2024-03-17T03:33:42;1005.2078919321727;;;9.081502920283134;47.96734996375587
46382;BME280;66809;52.974;-2.514;2024-03-17T03:35:42;1005.1913966054193;;;9.076812621626903;47.998094638624465
46382;BME280;66809;52.974;-2.514;2024-03-17T03:37:42;1005.1741051196294;;;9.08023755919918;48.035946089663156
46382;BME280;66809;52.974;-2.514;2024-03-17T03:39:42;1005.1572123338531;;;9.06854203391742;48.07408486580848
46382;BME280;66809;52.974;-2.514;2024-03-17T03:41:42;1005.1416686357612;;;9.048622042510052;48.112633893342995
46382;BME280;66809;52.974;-2.514;2024-03-17T03:43:42;1005.1266689231378;;;9.05459573274874;48.15362220144054
46382;BME280;66809;52.974;-2.514;2024-03-17T03:45:42;1005.1126150531366;;;9.052005919387705;48.187419251668054
46382;BME280;66809;52.974;-2.514;2024-03-17T03:47:43;1005.1002814686414;;;9.055089437210805;48.205503304115446
46382;BME280;66809;52.974;-2.514;2024-03-17T03:49:42;1005.0887204023885;;;9.052376655047983;48.22021773802939
46382;BME280;66809;52.974;-2.514;2024-03-17T03:51:42;1005.0786359214076;;;9.060110458209303;48.21512474877691
46382;BME280;66809;52.974;-2.514;2024-03-17T03:53:42;1005.0680655695413;;;9.0562001981158;48.20075263773624
46382;BME280;66809;52.974;-2.514;2024-03-17T03:55:42;1005.0555068877582;;;9.062260011590032;48.19588599058502
46382;BME280;66809;52.974;-2.514;2024-03-17T03:57:42;1005.0425121300955;;;9.06014472196004;48.20830409777706
46382;BME280;66809;52.974;-2.514;2024-03-17T03:59:42;1005.0299946208795;;;9.069836570504886;48.22957531368229
46382;BME280;66809;52.974;-2.514;2024-03-17T04:01:42;1005.0185064483402;;;9.078819217108927;48.24844002423761
46382;BME280;66809;52.974;-2.514;2024-03-17T04:03:42;1005.0085385232112;;;9.082938177634702;48.260630295408376
46382;BME280;66809;52.974;-2.514;2024-03-17T04:05:42;1004.9985495499241;;;9.090880019731024;48.25939608773284
46382;BME280;66809;52.974;-2.514;2024-03-17T04:07:42;1004.9877541218731;;;9.090625549205916;48.255158659339166
46382;BME280;66809;52.974;-2.514;2024-03-17T04:09:42;1004.975473499342;;;9.103430098248413;48.251595997225955
46382;BME280;66809;52.974;-2.514;2024-03-17T04:11:42;1004.9629204200235;;;9.111119858097178;48.24510763051456
46382;BME280;66809;52.974;-2.514;2024-03-17T04:13:42;1004.9499758790239;;;9.117011602125501;48.24064704985484
46382;BME280;66809;52.974;-2.514;2024-03-17T04:15:42;1004.9368236879686;;;9.127925708375843;48.22722234788244
46382;BME280;66809;52.974;-2.514;2024-03-17T04:17:42;1004.923326692601;;;9.128465420832852;48.2220195396402
46382;BME280;66809;52.974;-2.514;2024-03-17T04:19:42;1004.910600169986;;;9.12620728944401;48.22312102193165
46382;BME280;66809;52.974;-2.514;2024-03-17T04:21:42;1004.8976086307993;;;9.127475980117904;48.22839931189028
46382;BME280;66809;52.974;-2.514;2024-03-17T04:23:42;1004.8859391444969;;;9.126148476084024;48.23910418511775
46382;BME280;66809;52.974;-2.514;2024-03-17T04:25:42;1004.8731045000526;;;9.130391449748934;48.24441702818701
46382;BME280;66809;52.974;-2.514;2024-03-17T04:27:42;1004.8587377206754;;;9.137827159923773;48.24050613186525
46382;BME280;66809;52.974;-2.514;2024-03-17T04:29:42;1004.8436258196411;;;9.142036529985951;48.236459757199356
46382;BME280;66809;52.974;-2.514;2024-03-17T04:31:42;1004.8284924846115;;;9.138742970497315;48.25689966726505
46382;BME280;66809;52.974;-2.514;2024-03-17T04:33:42;1004.81268629521;;;9.143973387430481;48.27450300243124
46382;BME280;66809;52.974;-2.514;2024-03-17T04:35:42;1004.7978976678298;;;9.140114899272692;48.29995876003807
46382;BME280;66809;52.974;-2.514;2024-03-17T04:37:42;1004.7849621489955;;;9.125295870163937;48.327640848862394
46382;BME280;66809;52.974;-2.514;2024-03-17T04:39:43;1004.772421317346;;;9.11789376018362;48.353302279177306
46382;BME280;66809;52.974;-2.514;2024-03-17T04:41:42;1004.7604055143943;;;9.121110671699023;48.370385815261834
46382;BME280;66809;52.974;-2.514;2024-03-17T04:43:42;1004.7477498582432;;;9.114170663590373;48.38610996724406
46382;BME280;66809;52.974;-2.514;2024-03-17T04:45:42;1004.734527097639;;;9.10695338813926;48.40290834485377
46382;BME280;66809;52.974;-2.514;2024-03-17T04:47:42;1004.7207721711865;;;9.105781514192008;48.424643320174354
46382;BME280;66809;52.974;-2.514;2024-03-17T04:49:43;1004.7072069470695;;;9.104721822106265;48.452222994552734
46382;BME280;66809;52.974;-2.514;2024-03-17T04:51:42;1004.6932645279189;;;9.094479833535065;48.48499371298733
46382;BME280;66809;52.974;-2.514;2024-03-17T04:53:42;1004.6804520351257;;;9.100763444277531;48.507296804792695
46382;BME280;66809;52.974;-2.514;2024-03-17T04:55:42;1004.6694893441762;;;9.092452952008012;48.52151795035698
46382;BME280;66809;52.974;-2.514;2024-03-17T04:57:42;1004.6583488957536;;;9.087587263914235;48.5206487697986
46382;BME280;66809;52.974;-2.514;2024-03-17T04:59:42;1004.6465194654587;;;9.083203447184182;48.516262619596354
46382;BME280;66809;52.974;-2.514;2024-03-17T05:01:42;1004.6341985631875;;;9.079069685255629;48.51758386538645
46382;BME280;66809;52.974;-2.514;2024-03-17T05:03:42;1004.6220639420964;;;9.081678685253618;48.526191847209944
46382;BME280;66809;52.974;-2.514;2024-03-17T05:05:43;1004.6103770026114;;;9.081525445768936;48.54262807561522
46382;BME280;66809;52.974;-2.514;2024-03-17T05:07:42;1004.5992049910502;;;9.089083198192347;48.54836274345372
46382;BME280;66809;52.974;-2.514;2024-03-17T05:09:42;1004.5901783909429;;;9.086001683114363;48.54633308170467
46382;BME280;66809;52.974;-2.514;2024-03-17T05:11:42;1004.5834940990122;;;9.08612131034084;48.54268059846468
46382;BME280;66809;52.974;-2.514;2024-03-17T05:13:42;1004.5771183522029;;;9.09710905712589;48.52655740053112
46382;BME280;66809;52.974;-2.514;2024-03-17T05:15:42;1004.5712555033144;;;9.102351870094342;48.517837642580815
46382;BME280;66809;52.974;-2.514;2024-03-17T05:17:42;1004.5654218116625;;;9.105193720843106;48.50661103073814
46382;BME280;66809;52.974;-2.514;2024-03-17T05:19:42;1004.5591480823628;;;9.109354669251198;48.493064264448925
46382;BME280;66809;52.974;-2.514;2024-03-17T05:21:42;1004.5552220347581;;;9.110877409282843;48.482412926913604
46382;BME280;66809;52.974;-2.514;2024-03-17T05:23:42;1004.5496945494995;;;9.106806451070232;48.47097511658579
46382;BME280;66809;52.974;-2.514;2024-03-17T05:25:42;1004.5453630194655;;;9.10390137288346;48.4662205580983
46382;BME280;66809;52.974;-2.514;2024-03-17T05:27:42;1004.542730778717;;;9.094402768973668;48.46524586788436
46382;BME280;66809;52.974;-2.514;2024-03-17T05:29:42;1004.539735474717;;;9.093142477964497;48.465134173963065
46382;BME280;66809;52.974;-2.514;2024-03-17T05:31:42;1004.5361591531804;;;9.091487297343532;48.462677277167295
46382;BME280;66809;52.974;-2.514;2024-03-17T05:33:42;1004.5306055236674;;;9.08843739456169;48.46527456968134
46382;BME280;66809;52.974;-2.514;2024-03-17T05:35:48;1004.5220505426688;;;9.084372850476477;48.46489263738752
46382;BME280;66809;52.974;-2.514;2024-03-17T05:37:42;1004.5124940250375;;;9.087649605372464;48.46190841421095
46382;BME280;66809;52.974;-2.514;2024-03-17T05:39:42;1004.5024673259869;;;9.092531131824124;48.45513983394334
46382;BME280;66809;52.974;-2.514;2024-03-17T05:41:43;1004.4916354814907;;;9.096832925226668;48.446022283005306
46382;BME280;66809;52.974;-2.514;2024-03-17T05:43:42;1004.4807217643223;;;9.103485267025105;48.43716897633639
46382;BME280;66809;52.974;-2.514;2024-03-17T05:45:42;1004.4720254815683;;;9.100689417516172;48.432704080193396
46382;BME280;66809;52.974;-2.514;2024-03-17T05:47:43;1004.4628604386947;;;9.091643557177617;48.42175118338767
46382;BME280;66809;52.974;-2.514;2024-03-17T05:49:42;1004.4532872416792;;;9.092947859559477;48.39909115174045
46382;BME280;66809;52.974;-2.514;2024-03-17T05:51:42;1004.4435700728906;;;9.095661689969893;48.37053793932968
46382;BME280;66809;52.974;-2.514;2024-03-17T05:53:43;1004.4334787950683;;;9.101599869355292;48.35805997327906
46382;BME280;66809;52.974;-2.514;2024-03-17T05:55:42;1004.4239763380891;;;9.107230135507253;48.33942071421394
46382;BME280;66809;52.974;-2.514;2024-03-17T05:57:42;1004.4144789397487;;;9.10762798731148;48.326828246659694
46382;BME280;66809;52.974;-2.514;2024-03-17T05:59:42;1004.4055698235596;;;9.103672670298748;48.30722435739916
46382;BME280;66809;52.974;-2.514;2024-03-17T06:01:42;1004.3959420337474;;;9.09767472199909;48.29078283818683
46382;BME280;66809;52.974;-2.514;2024-03-17T06:03:42;1004.3860294209825;;;9.092063263046834;48.25844118247432
46382;BME280;66809;52.974;-2.514;2024-03-17T06:05:43;1004.3766039860054;;;9.089836746549235;48.23637084462052
46382;BME280;66809;52.974;-2.514;2024-03-17T06:07:42;1004.367365368585;;;9.080647015619379;48.221887066509915
46382;BME280;66809;52.974;-2.514;2024-03-17T06:09:42;1004.3568961631128;;;9.075252967475747;48.2087592662693
46382;BME280;66809;52.974;-2.514;2024-03-17T06:11:42;1004.3455319034158;;;9.062196351063013;48.203447364521104
46382;BME280;66809;52.974;-2.514;2024-03-17T06:13:42;1004.3354683097471;;;9.052416489568596;48.21221801718805
46382;BME280;66809;52.974;-2.514;2024-03-17T06:15:43;1004.3264919001739;;;9.03707013329022;48.20532854440301
46382;BME280;66809;52.974;-2.514;2024-03-17T06:17:42;1004.3180464916254;;;9.030919912249058;48.19609480139167
46382;BME280;66809;52.974;-2.514;2024-03-17T06:19:42;1004.3098667792891;;;9.031558460066046;48.17610776940275
46382;BME280;66809;52.974;-2.514;2024-03-17T06:21:42;1004.3011244442133;;;9.032147634068764;48.1385716550703
46382;BME280;66809;52.974;-2.514;2024-03-17T06:23:42;1004.2925992359778;;;9.061315203591713;48.087656193465065
46382;BME280;66809;52.974;-2.514;2024-03-17T06:25:43;1004.2839588225175;;;9.07407041801264;48.0248641178494
46382;BME280;66809;52.974;-2.514;2024-03-17T06:27:43;1004.2748369581531;;;9.083125817825966;47.96291373046279
46382;BME280;66809;52.974;-2.514;2024-03-17T06:29:42;1004.265767177898;;;9.08448063473826;47.90605182246408
46382;BME280;66809;52.974;-2.514;2024-03-17T06:31:42;1004.2550363454263;;;9.092767063135886;47.829645511270165
46382;BME280;66809;52.974;-2.514;2024-03-17T06:33:42;1004.2449471461413;;;9.110431987585438;47.75145896418024
46382;BME280;66809;52.974;-2.514;2024-03-17T06:35:42;1004.2353581314177;;;9.127841905030964;47.67463866073424
46382;BME280;66809;52.974;-2.514;2024-03-17T06:37:42;1004.2258377108174;;;9.14500817379898;47.59312026285015
46382;BME280;66809;52.974;-2.514;2024-03-17T06:39:45;1004.2152538207133;;;9.149110453467953;47.50873570740206
46382;BME280;66809;52.974;-2.514;2024-03-17T06:41:42;1004.2043340436909;;;9.151960841699132;47.430576939922894
46382;BME280;66809;52.974;-2.514;2024-03-17T06:43:42;1004.1933518296898;;;9.154777620332336;47.358567623589316
46382;BME280;66809;52.974;-2.514;2024-03-17T06:45:42;1004.1787270343973;;;9.165558405096869;47.28399099138703
46382;BME280;66809;52.974;-2.514;2024-03-17T06:47:42;1004.1651506447022;;;9.179941632060777;47.20626602493992
46382;BME280;66809;52.974;-2.514;2024-03-17T06:49:44;1004.1524765381739;;;9.182832969808368;47.143912591741916
46382;BME280;66809;52.974;-2.514;2024-03-17T06:51:43;1004.1399479575558;;;9.186850175039034;47.089861420442475
46382;BME280;66809;52.974;-2.514;2024-03-17T06:53:42;1004.1294249068326;;;9.177635349202449;47.03695612456938
46382;BME280;66809;52.974;-2.514;2024-03-17T06:55:42;1004.1197146508205;;;9.179727573148428;46.98848641063823
46382;BME280;66809;52.974;-2.514;2024-03-17T06:57:42;1004.1117960937369;;;9.192084998907596;46.93117657902488
46382;BME280;66809;52.974;-2.514;2024-03-17T06:59:42;1004.1035754862222;;;9.205467470626125;46.871911950837536
46382;BME280;66809;52.974;-2.514;2024-03-17T07:01:42;1004.0963620895934;;;9.227244475542234;46.805341274838106
46382;BME280;66809;52.974;-2.514;2024-03-17T07:03:42;1004.0886282835721;;;9.245603893742384;46.73925080564715
46382;BME280;66809;52.974;-2.514;2024-03-17T07:05:42;1004.0803346219171;;;9.25564732699547;46.675420700179615
46382;BME280;66809;52.974;-2.514;2024-03-17T07:07:43;1004.0735056277096;;;9.264209040839372;46.62293359433626
46382;BME280;66809;52.974;-2.514;2024-03-17T07:09:42;1004.067426697388;;;9.28126515709885;46.554885207378156
46382;BME280;66809;52.974;-2.514;2024-03-17T07:11:42;1004.0603885747811;;;9.302104157576377;46.47658127184612
46382;BME280;66809;52.974;-2.514;2024-03-17T07:13:42;1004.0495819796525;;;9.32371616675559;46.38430432509419